Aviation Digital Data Service (ADDS)

Output produced by METARs form (2031 UTC 20 August 2019)
found at http://www.aviationweather.gov/metar/data/
 
Forecast for: PAJN (JUNEAU , AK, US)
Text: PAJN 201904Z 2019/2118 10011KT P6SM FEW060 BKN250 WS020/06025KT
Forecast period: 1900 UTC 20 August 2019 to 0500 UTC 21 August 2019
Forecast type: FROM: standard forecast or significant change
Winds: from the E (100 degrees) at 13 MPH (11 knots; 5.7 m/s)
Visibility: 6 or more miles 10+ km)
Ceiling: 25000 feet AGL
Clouds: few clouds at 6000 feet AGL
broken clouds at 25000 feet AGL
Wind Shear: at 2000 feet ( 610 m) AGL, from the ENE (60 degrees) at 29 MPH (25 knots; 13.0 m/s)
Weather: no significant weather forecast for this period
Text: FM210500 VRB04KT P6SM -RA SCT030 OVC050
Forecast period: 0500 to 1000 UTC 21 August 2019
Forecast type: FROM: standard forecast or significant change
Winds: variable direction winds at 5 MPH (4 knots; 2.1 m/s)
Visibility: 6 or more miles 10+ km)
Ceiling: 5000 feet AGL
Clouds: scattered clouds at 3000 feet AGL
overcast cloud deck at 5000 feet AGL
Weather: -RA  (light rain)
Text: FM211000 VRB03KT 5SM -RA BR BKN020 OVC035
Forecast period: 1000 to 1800 UTC 21 August 2019
Forecast type: FROM: standard forecast or significant change
Winds: variable direction winds at 3 MPH (3 knots; 1.5 m/s)
Visibility: 5 miles (8 km)
Ceiling: 2000 feet AGL
Clouds: broken clouds at 2000 feet AGL
overcast cloud deck at 3500 feet AGL
Weather: -RA BR  (light rain, mist)